Time;durP1;ratioP1;P1;durP2;ratioP2;P2;SDS_P1;SDS_P2;PMS_P1;PMS_P2;Temp;Humidity;BMP_temperature;BMP_pressure;BME280_temperature;BME280_humidity;BME280_pressure;Samples;Min_cycle;Max_cycle;Signal;HPM_P1;HPM_P2
2023/08/20 00:01:11;;;;;;;6.45;5.07;;;;;;;22.44;100.00;97676.81;5092675;28;20394;-73
2023/08/20 00:03:38;;;;;;;7.22;5.53;;;;;;;22.42;100.00;97668.22;5093069;28;20405;-73
2023/08/20 00:06:04;;;;;;;6.47;5.32;;;;;;;22.42;100.00;97683.63;5092902;28;20775;-73
2023/08/20 00:08:31;;;;;;;5.50;4.60;;;;;;;22.42;100.00;97680.91;5078478;28;20486;-73
2023/08/20 00:10:57;;;;;;;5.97;5.10;;;;;;;22.40;100.00;97684.72;5072383;28;20438;-73
2023/08/20 00:13:23;;;;;;;5.38;4.60;;;;;;;22.44;100.00;97689.50;5072636;28;20403;-73
2023/08/20 00:15:50;;;;;;;4.75;3.92;;;;;;;22.44;100.00;97686.78;5054409;28;20423;-73
2023/08/20 00:18:18;;;;;;;5.15;4.65;;;;;;;22.46;100.00;97682.69;5072435;28;20435;-73
2023/08/20 00:20:45;;;;;;;5.63;5.03;;;;;;;22.47;100.00;97692.34;5072357;28;20411;-73
2023/08/20 00:23:12;;;;;;;6.30;5.13;;;;;;;22.48;100.00;97691.22;5072150;28;20924;-73
2023/08/20 00:25:39;;;;;;;5.70;4.80;;;;;;;22.48;100.00;97693.16;5079323;28;20485;-73
2023/08/20 00:28:05;;;;;;;5.82;4.85;;;;;;;22.47;100.00;97689.66;5092525;28;20398;-73
2023/08/20 00:30:31;;;;;;;7.43;5.15;;;;;;;22.46;100.00;97690.78;5086251;28;20473;-73
2023/08/20 00:32:58;;;;;;;6.60;5.03;;;;;;;22.46;100.00;97690.78;5071664;28;20783;-73
2023/08/20 00:35:25;;;;;;;5.90;5.30;;;;;;;22.45;100.00;97689.19;5072116;28;20471;-72
2023/08/20 00:37:52;;;;;;;6.60;5.50;;;;;;;22.45;100.00;97691.09;5072060;28;20408;-73
2023/08/20 00:40:18;;;;;;;6.35;4.90;;;;;;;22.45;100.00;97694.56;5084543;28;20409;-73
2023/08/20 00:42:44;;;;;;;7.75;5.30;;;;;;;22.44;100.00;97693.00;5092177;28;20425;-73
2023/08/20 00:45:11;;;;;;;6.00;5.20;;;;;;;22.45;100.00;97701.88;5072444;28;20816;-73
2023/08/20 00:47:38;;;;;;;5.63;5.03;;;;;;;22.43;100.00;97702.19;5071996;28;20551;-73
2023/08/20 00:50:06;;;;;;;7.25;4.97;;;;;;;22.42;100.00;97700.59;5071656;28;20473;-73
2023/08/20 00:52:34;;;;;;;6.00;5.10;;;;;;;22.39;100.00;97698.56;5071740;28;20445;-73
2023/08/20 00:55:06;;;;;;;6.97;4.80;;;;;;;22.37;100.00;97696.19;5071664;28;20889;-73
2023/08/20 00:57:33;;;;;;;8.05;5.55;;;;;;;22.34;100.00;97691.41;5071682;28;20399;-73
2023/08/20 00:59:59;;;;;;;5.95;5.00;;;;;;;22.34;100.00;97699.50;5071530;28;20408;-73
2023/08/20 01:02:25;;;;;;;7.43;5.53;;;;;;;22.32;100.00;97690.94;5071409;28;20426;-73
2023/08/20 01:04:52;;;;;;;8.98;5.57;;;;;;;22.30;100.00;97693.16;5071480;28;20504;-73
2023/08/20 01:07:27;;;;;;;7.72;5.40;;;;;;;22.28;100.00;97695.38;5071494;28;20400;-73
2023/08/20 01:10:08;;;;;;;7.70;5.47;;;;;;;22.27;100.00;97698.41;5071331;28;20434;-73
2023/08/20 01:12:36;;;;;;;6.68;5.20;;;;;;;22.24;100.00;97693.66;5085829;28;20744;-73
2023/08/20 01:15:02;;;;;;;6.25;5.35;;;;;;;22.24;100.00;97699.06;5091478;28;20405;-73
2023/08/20 01:17:29;;;;;;;7.60;5.80;;;;;;;22.23;100.00;97697.47;5073561;28;20398;-73
2023/08/20 01:19:55;;;;;;;7.10;5.75;;;;;;;22.21;100.00;97696.97;5091310;28;20759;-73
2023/08/20 01:22:54;;;;;;;8.70;5.68;;;;;;;22.20;100.00;97700.78;5091420;28;20410;-73
2023/08/20 01:25:39;;;;;;;9.02;5.80;;;;;;;22.19;100.00;97696.50;5077464;28;20468;-73
2023/08/20 01:28:18;;;;;;;6.23;5.30;;;;;;;22.18;100.00;97703.00;5091312;28;20511;-73
2023/08/20 01:30:46;;;;;;;5.82;5.22;;;;;;;22.17;100.00;97704.13;5091180;28;20390;-73
2023/08/20 01:33:12;;;;;;;7.00;5.50;;;;;;;22.17;100.00;97698.75;5091375;28;20451;-73
2023/08/20 01:35:38;;;;;;;7.38;5.20;;;;;;;22.15;100.00;97695.56;5091461;28;20429;-73
2023/08/20 01:38:05;;;;;;;6.18;5.35;;;;;;;22.14;100.00;97699.38;5091139;28;20408;-72
2023/08/20 01:40:31;;;;;;;5.68;5.03;;;;;;;22.10;100.00;97704.63;5091037;28;20398;-73
2023/08/20 01:42:57;;;;;;;7.07;5.53;;;;;;;22.08;100.00;97704.13;5090948;28;20433;-73
2023/08/20 01:45:26;;;;;;;9.40;5.60;;;;;;;22.06;100.00;97705.56;5085451;28;20422;-73
2023/08/20 01:47:52;;;;;;;7.63;6.25;;;;;;;22.03;100.00;97709.66;5070718;28;20422;-73
2023/08/20 01:50:18;;;;;;;9.17;6.03;;;;;;;22.00;100.00;97704.91;5070623;28;20457;-73
2023/08/20 01:52:45;;;;;;;6.65;5.70;;;;;;;21.97;100.00;97700.94;5070585;28;20653;-72
2023/08/20 01:55:12;;;;;;;6.90;5.60;;;;;;;21.95;100.00;97713.91;5052586;28;20408;-73
2023/08/20 01:57:38;;;;;;;7.15;5.43;;;;;;;21.92;100.00;97714.56;5070475;28;20411;-73
2023/08/20 02:00:06;;;;;;;6.97;5.68;;;;;;;21.90;100.00;97708.69;5069967;28;20950;-73
2023/08/20 02:02:34;;;;;;;5.97;5.05;;;;;;;21.86;100.00;97709.66;5070519;28;20481;-73
2023/08/20 02:05:02;;;;;;;5.43;4.70;;;;;;;21.84;100.00;97711.84;5069928;28;20404;-73
2023/08/20 02:07:29;;;;;;;6.95;5.60;;;;;;;21.83;100.00;97710.25;5070629;28;20453;-73
2023/08/20 02:09:55;;;;;;;5.77;4.97;;;;;;;21.79;100.00;97710.13;5070507;28;20407;-73
2023/08/20 02:12:21;;;;;;;5.95;5.30;;;;;;;21.77;100.00;97708.84;5070523;28;20761;-73
2023/08/20 02:14:47;;;;;;;6.97;5.57;;;;;;;21.74;100.00;97712.94;5070601;28;20404;-73
2023/08/20 02:17:14;;;;;;;6.90;5.85;;;;;;;21.70;100.00;97711.22;5070617;28;20404;-73
2023/08/20 02:19:41;;;;;;;8.98;6.00;;;;;;;21.69;100.00;97713.09;5070555;28;20427;-73
2023/08/20 02:22:08;;;;;;;8.65;5.93;;;;;;;21.66;100.00;97719.13;5070187;28;20901;-73
2023/08/20 02:24:34;;;;;;;7.05;5.90;;;;;;;21.63;100.00;97717.84;5070551;28;20403;-73
2023/08/20 02:27:00;;;;;;;6.38;5.68;;;;;;;21.62;100.00;97715.47;5070161;28;20414;-72
2023/08/20 02:29:26;;;;;;;6.95;5.57;;;;;;;21.59;100.00;97714.19;5075399;28;20481;-72
2023/08/20 02:31:52;;;;;;;6.20;5.57;;;;;;;21.60;100.00;97714.97;5090325;28;20909;-73
2023/08/20 02:34:18;;;;;;;6.10;5.50;;;;;;;21.59;100.00;97710.69;5090357;28;20522;-73
2023/08/20 02:36:48;;;;;;;5.97;5.38;;;;;;;21.58;100.00;97712.59;5090339;28;20485;-73
2023/08/20 02:39:14;;;;;;;6.32;5.55;;;;;;;21.56;100.00;97714.03;5090256;28;20394;-73
2023/08/20 02:41:41;;;;;;;8.23;5.07;;;;;;;21.54;100.00;97717.03;5090127;28;20413;-73
2023/08/20 02:44:07;;;;;;;6.38;5.28;;;;;;;21.53;100.00;97723.53;5070802;28;20403;-73
2023/08/20 02:46:33;;;;;;;6.07;4.95;;;;;;;21.51;100.00;97720.34;5070214;28;20473;-73
2023/08/20 02:49:00;;;;;;;6.05;5.18;;;;;;;21.50;100.00;97726.06;5069963;28;20914;-72
2023/08/20 02:51:26;;;;;;;6.72;5.97;;;;;;;21.46;100.00;97720.50;5069852;28;20400;-73
2023/08/20 02:53:53;;;;;;;8.77;6.85;;;;;;;21.42;100.00;97724.94;5070491;28;20403;-73
2023/08/20 02:56:20;;;;;;;8.30;6.55;;;;;;;21.38;100.00;97718.56;5091406;28;20410;-73
2023/08/20 02:58:46;;;;;;;7.13;6.13;;;;;;;21.34;100.00;97708.75;5094284;28;20402;-73
2023/08/20 03:01:21;;;;;;;8.35;6.10;;;;;;;21.32;100.00;97709.06;5094007;28;20394;-72
2023/08/20 03:03:47;;;;;;;7.63;6.47;;;;;;;21.30;100.00;97708.56;5094205;28;20481;-72
2023/08/20 03:06:13;;;;;;;8.57;6.68;;;;;;;21.29;100.00;97703.50;5090657;28;20399;-72
2023/08/20 03:08:39;;;;;;;7.35;5.82;;;;;;;21.26;100.00;97707.63;5073830;28;20403;-73
2023/08/20 03:11:07;;;;;;;7.82;5.93;;;;;;;21.23;100.00;97703.66;5073494;28;20934;-73
2023/08/20 03:13:33;;;;;;;6.70;5.80;;;;;;;21.20;100.00;97698.09;5073784;28;20807;-73
2023/08/20 03:16:00;;;;;;;7.55;5.78;;;;;;;21.17;100.00;97702.22;5073655;28;20403;-73
2023/08/20 03:18:26;;;;;;;6.38;5.63;;;;;;;21.14;100.00;97696.59;5073761;28;20414;-72
2023/08/20 03:20:55;;;;;;;6.90;5.15;;;;;;;21.12;100.00;97701.53;5073296;28;20399;-73
2023/08/20 03:23:22;;;;;;;6.32;5.57;;;;;;;21.11;100.00;97699.94;5073369;28;20445;-73
2023/08/20 03:25:48;;;;;;;7.67;5.77;;;;;;;21.09;100.00;97708.31;5073551;28;20403;-73
2023/08/20 03:28:15;;;;;;;6.82;5.63;;;;;;;21.09;100.00;97707.53;5073596;28;20964;-73
2023/08/20 03:30:42;;;;;;;6.63;5.37;;;;;;;21.06;100.00;97713.50;5088957;28;20481;-73
2023/08/20 03:33:08;;;;;;;7.40;6.32;;;;;;;21.04;100.00;97711.16;5093506;28;20394;-73
2023/08/20 03:35:34;;;;;;;8.57;6.85;;;;;;;21.01;100.00;97710.97;5093694;28;20479;-73
2023/08/20 03:38:00;;;;;;;10.77;6.68;;;;;;;20.98;100.00;97700.81;5093406;28;20489;-73
2023/08/20 03:40:28;;;;;;;7.63;6.40;;;;;;;20.95;100.00;97698.75;5093405;28;20405;-73
2023/08/20 03:42:54;;;;;;;7.00;5.70;;;;;;;20.94;100.00;97706.03;5093256;28;20414;-72
2023/08/20 03:45:21;;;;;;;6.57;5.70;;;;;;;20.93;100.00;97699.06;5093344;28;20433;-72
2023/08/20 03:47:48;;;;;;;5.80;5.20;;;;;;;20.93;100.00;97701.75;5085093;28;20404;-73
2023/08/20 03:50:14;;;;;;;7.47;5.45;;;;;;;20.94;100.00;97699.84;5063215;28;20461;-73
2023/08/20 03:52:40;;;;;;;9.23;6.33;;;;;;;20.92;100.00;97699.38;5072933;28;20849;-73
2023/08/20 03:55:07;;;;;;;6.00;5.40;;;;;;;20.88;100.00;97693.03;5072845;28;20396;-73
2023/08/20 03:57:33;;;;;;;8.02;5.97;;;;;;;20.86;100.00;97687.94;5072766;28;20411;-73
2023/08/20 03:59:59;;;;;;;8.20;5.93;;;;;;;20.82;100.00;97690.44;5054623;28;20408;-73
2023/08/20 04:02:27;;;;;;;7.53;6.43;;;;;;;20.81;100.00;97696.16;5072742;28;20416;-73
2023/08/20 04:04:53;;;;;;;8.10;5.78;;;;;;;20.78;100.00;97702.94;5072749;28;20399;-73
2023/08/20 04:07:19;;;;;;;6.22;5.45;;;;;;;20.76;100.00;97705.16;5072232;28;20483;-73
2023/08/20 04:09:45;;;;;;;8.02;5.53;;;;;;;20.76;100.00;97715.13;5072373;28;20820;-73
2023/08/20 04:12:11;;;;;;;6.70;6.00;;;;;;;20.74;100.00;97710.06;5084162;28;20393;-73
2023/08/20 04:14:37;;;;;;;9.50;6.78;;;;;;;20.70;100.00;97710.97;5092792;28;20402;-73
2023/08/20 04:17:04;;;;;;;7.07;6.35;;;;;;;20.67;100.00;97709.72;5092777;28;20485;-73
2023/08/20 04:19:31;;;;;;;7.97;6.43;;;;;;;20.65;100.00;97709.22;5060415;28;20944;-73
2023/08/20 04:21:57;;;;;;;8.35;5.93;;;;;;;20.65;100.00;97703.03;5054288;28;20416;-73
2023/08/20 04:24:23;;;;;;;7.25;6.20;;;;;;;20.66;100.00;97704.63;5054535;28;20411;-73
2023/08/20 04:26:50;;;;;;;7.50;6.35;;;;;;;20.65;100.00;97711.13;5072301;28;20500;-73
2023/08/20 04:29:16;;;;;;;7.43;6.40;;;;;;;20.63;100.00;97716.78;5072203;28;20404;-73
2023/08/20 04:31:42;;;;;;;8.50;6.32;;;;;;;20.61;100.00;97712.81;5072218;28;20482;-73
2023/08/20 04:34:08;;;;;;;6.95;6.13;;;;;;;20.57;100.00;97712.66;5072083;28;20419;-73
2023/08/20 04:36:36;;;;;;;6.50;5.80;;;;;;;20.56;100.00;97713.75;5072290;28;20414;-73
2023/08/20 04:39:02;;;;;;;8.57;5.75;;;;;;;20.57;100.00;97717.22;5072129;28;20885;-73
2023/08/20 04:41:28;;;;;;;6.50;5.75;;;;;;;20.58;100.00;97730.38;5071848;28;20423;-73
2023/08/20 04:43:55;;;;;;;6.82;6.10;;;;;;;20.60;100.00;97730.84;5071856;28;20418;-73
2023/08/20 04:46:21;;;;;;;7.28;5.80;;;;;;;20.60;100.00;97730.09;5071843;28;20878;-73
2023/08/20 04:48:47;;;;;;;6.47;5.75;;;;;;;20.59;100.00;97731.97;5071840;28;20407;-73
2023/08/20 04:51:13;;;;;;;6.00;5.40;;;;;;;20.58;100.00;97741.13;5071652;28;20495;-73
2023/08/20 04:53:41;;;;;;;7.30;5.50;;;;;;;20.57;100.00;97739.53;5071860;28;20423;-73
2023/08/20 04:56:07;;;;;;;6.60;5.50;;;;;;;20.58;100.00;97740.34;5071587;28;20407;-73
2023/08/20 04:58:33;;;;;;;5.60;5.00;;;;;;;20.59;100.00;97742.72;5071814;28;20461;-73
2023/08/20 05:00:59;;;;;;;7.63;6.13;;;;;;;20.61;100.00;97747.78;5071347;28;20400;-73
2023/08/20 05:03:26;;;;;;;6.30;5.40;;;;;;;20.63;100.00;97751.75;5071800;28;20836;-73
2023/08/20 05:05:52;;;;;;;6.85;5.65;;;;;;;20.65;100.00;97746.09;5071508;28;20399;-73
2023/08/20 05:08:18;;;;;;;6.63;5.93;;;;;;;20.66;100.00;97753.06;5071542;28;20396;-73
2023/08/20 05:10:46;;;;;;;6.53;5.85;;;;;;;20.67;100.00;97746.56;5071491;28;20820;-73
2023/08/20 05:13:12;;;;;;;5.90;5.30;;;;;;;20.70;100.00;97732.50;5071336;28;20392;-73
2023/08/20 05:15:38;;;;;;;6.95;5.25;;;;;;;20.73;100.00;97721.13;5071467;28;20421;-73
2023/08/20 05:18:04;;;;;;;5.60;4.80;;;;;;;20.76;100.00;97712.44;5081784;28;20876;-73
2023/08/20 05:20:31;;;;;;;5.80;4.93;;;;;;;20.80;100.00;97699.97;5090360;28;20840;-73
2023/08/20 05:22:57;;;;;;;5.80;5.20;;;;;;;20.83;100.00;97705.50;5091380;28;20414;-73
2023/08/20 05:25:23;;;;;;;6.67;5.80;;;;;;;20.90;100.00;97721.19;5091500;28;20459;-73
2023/08/20 05:27:51;;;;;;;7.72;6.47;;;;;;;20.99;100.00;97740.09;5073312;28;20413;-73
2023/08/20 05:30:17;;;;;;;7.90;6.82;;;;;;;21.05;100.00;97742.31;5087277;28;20893;-73
2023/08/20 05:32:43;;;;;;;7.30;6.35;;;;;;;21.12;100.00;97741.91;5070936;28;20912;-73
2023/08/20 05:35:10;;;;;;;7.18;5.82;;;;;;;21.20;100.00;97741.19;5071034;28;20950;-73
2023/08/20 05:37:36;;;;;;;6.43;5.72;;;;;;;21.27;100.00;97740.72;5077587;28;20402;-73
2023/08/20 05:40:02;;;;;;;6.25;5.50;;;;;;;21.33;100.00;97742.16;5091108;28;20402;-73
2023/08/20 05:42:28;;;;;;;5.97;5.38;;;;;;;21.40;100.00;97753.28;5091113;28;20456;-73
2023/08/20 05:44:56;;;;;;;6.80;5.15;;;;;;;21.46;100.00;97750.13;5091300;28;20401;-73
2023/08/20 05:47:22;;;;;;;5.97;4.75;;;;;;;21.53;100.00;97747.78;5091058;28;20405;-73
2023/08/20 05:49:48;;;;;;;5.85;5.07;;;;;;;21.58;100.00;97747.63;5090963;28;20879;-73
2023/08/20 05:52:15;;;;;;;5.32;4.82;;;;;;;21.65;100.00;97757.97;5090958;28;20382;-73
2023/08/20 05:54:41;;;;;;;5.07;4.57;;;;;;;21.71;100.00;97751.31;5090945;28;20982;-73
2023/08/20 05:57:07;;;;;;;5.80;4.65;;;;;;;21.79;100.00;97750.53;5090780;28;20410;-73
2023/08/20 05:59:33;;;;;;;6.40;4.80;;;;;;;21.85;100.00;97746.59;5090693;28;20459;-73
2023/08/20 06:02:02;;;;;;;4.95;4.45;;;;;;;21.95;100.00;97754.34;5088974;28;20892;-73
2023/08/20 06:04:28;;;;;;;5.30;4.63;;;;;;;22.07;100.00;97761.84;5070587;28;20404;-73
2023/08/20 06:06:54;;;;;;;5.97;4.97;;;;;;;22.20;100.00;97760.91;5087996;28;20393;-73
2023/08/20 06:09:20;;;;;;;6.05;5.32;;;;;;;22.35;100.00;97760.44;5090572;28;20408;-73
2023/08/20 06:11:46;;;;;;;5.35;4.55;;;;;;;22.50;100.00;97761.06;5090518;28;20413;-73
2023/08/20 06:14:12;;;;;;;6.40;4.90;;;;;;;22.65;100.00;97768.66;5090589;28;20413;-73
2023/08/20 06:16:39;;;;;;;5.20;4.57;;;;;;;22.77;100.00;97771.53;5090592;28;20406;-73
2023/08/20 06:19:06;;;;;;;5.47;4.78;;;;;;;22.90;100.00;97767.06;5088313;28;20398;-73
2023/08/20 06:21:33;;;;;;;5.63;4.63;;;;;;;22.99;100.00;97768.63;5084796;28;20432;-73
2023/08/20 06:24:00;;;;;;;7.65;5.30;;;;;;;23.04;100.00;97770.34;5090071;28;20413;-73
2023/08/20 06:26:26;;;;;;;6.72;4.85;;;;;;;23.08;100.00;97774.78;5090379;28;20485;-73
2023/08/20 06:28:52;;;;;;;5.75;5.03;;;;;;;23.12;100.00;97775.72;5090375;28;20772;-73
2023/08/20 06:31:18;;;;;;;8.25;6.15;;;;;;;23.14;100.00;97773.50;5089770;28;20408;-73
2023/08/20 06:33:44;;;;;;;6.07;5.30;;;;;;;23.17;100.00;97770.16;5090466;28;20390;-73
2023/08/20 06:36:12;;;;;;;6.22;5.20;;;;;;;23.21;100.00;97773.00;5090325;28;20459;-73
2023/08/20 06:38:38;;;;;;;5.93;5.13;;;;;;;23.23;100.00;97775.38;5090474;28;20394;-74
2023/08/20 06:41:04;;;;;;;6.00;5.03;;;;;;;23.26;100.00;97778.22;5072105;28;20405;-73
2023/08/20 06:43:30;;;;;;;6.33;5.07;;;;;;;23.32;100.00;97774.22;5090624;28;20446;-73
2023/08/20 06:45:57;;;;;;;5.43;4.85;;;;;;;23.38;100.00;97770.22;5082055;28;20401;-73
2023/08/20 06:48:24;;;;;;;5.32;4.80;;;;;;;23.45;100.00;97772.44;5085551;28;20889;-73
2023/08/20 06:50:51;;;;;;;4.90;4.40;;;;;;;23.53;100.00;97777.81;5069824;28;20460;-73
2023/08/20 06:53:18;;;;;;;5.00;4.47;;;;;;;23.63;100.00;97778.56;5070151;28;20457;-73
2023/08/20 06:55:44;;;;;;;5.90;4.95;;;;;;;23.70;100.00;97781.53;5070041;28;20757;-73
2023/08/20 06:58:10;;;;;;;5.80;5.00;;;;;;;23.77;100.00;97782.63;5070013;28;20458;-74
2023/08/20 07:00:37;;;;;;;6.05;5.30;;;;;;;23.85;100.00;97784.47;5069901;28;20761;-73
2023/08/20 07:03:03;;;;;;;5.70;4.88;;;;;;;23.91;100.00;97787.78;5080085;28;20405;-73
2023/08/20 07:05:30;;;;;;;5.70;5.07;;;;;;;23.95;100.00;97786.00;5090227;28;20397;-72
2023/08/20 07:07:56;;;;;;;6.03;4.67;;;;;;;24.00;100.00;97788.50;5090064;28;20398;-73
2023/08/20 07:10:23;;;;;;;5.68;4.80;;;;;;;24.02;100.00;97786.28;5090182;28;20401;-73
2023/08/20 07:12:49;;;;;;;5.32;4.28;;;;;;;24.05;100.00;97798.38;5089788;28;20483;-73
2023/08/20 07:15:16;;;;;;;5.40;4.72;;;;;;;24.04;100.00;97789.47;5089993;28;20405;-73
2023/08/20 07:17:42;;;;;;;5.95;4.88;;;;;;;24.07;100.00;97788.78;5090073;28;20402;-73
2023/08/20 07:20:09;;;;;;;5.87;4.43;;;;;;;24.14;100.00;97793.66;5089670;28;20402;-73
2023/08/20 07:22:35;;;;;;;6.82;5.03;;;;;;;24.24;100.00;97801.44;5083421;28;20412;-73
2023/08/20 07:25:02;;;;;;;6.57;4.85;;;;;;;24.34;100.00;97797.56;5069742;28;20495;-73
2023/08/20 07:27:29;;;;;;;5.60;4.68;;;;;;;24.45;100.00;97810.34;5069765;28;20491;-73
2023/08/20 07:29:55;;;;;;;5.30;4.77;;;;;;;24.56;100.00;97799.91;5069698;28;20483;-73
2023/08/20 07:32:21;;;;;;;5.10;4.60;;;;;;;24.68;100.00;97806.16;5069867;28;20404;-73
2023/08/20 07:34:48;;;;;;;5.70;4.75;;;;;;;24.77;100.00;97808.78;5069604;28;20408;-73
2023/08/20 07:37:14;;;;;;;5.63;5.05;;;;;;;24.84;100.00;97811.75;5069655;28;20746;-73
2023/08/20 07:39:40;;;;;;;5.22;4.68;;;;;;;24.88;100.00;97809.97;5069737;28;20403;-73
2023/08/20 07:42:06;;;;;;;5.22;4.72;;;;;;;24.96;100.00;97813.75;5088864;28;20418;-73
2023/08/20 07:44:34;;;;;;;5.85;4.50;;;;;;;25.04;100.00;97818.28;5093079;28;20394;-73
2023/08/20 07:47:00;;;;;;;6.63;4.75;;;;;;;25.11;100.00;97815.81;5085247;28;20747;-73
2023/08/20 07:49:26;;;;;;;4.82;4.35;;;;;;;25.13;100.00;97821.69;5093190;28;20433;-73
2023/08/20 07:51:54;;;;;;;7.72;5.72;;;;;;;25.15;100.00;97818.66;5093327;28;20807;-73
2023/08/20 07:54:20;;;;;;;7.70;5.53;;;;;;;25.18;100.00;97818.78;5093257;28;20404;-73
2023/08/20 07:56:46;;;;;;;7.03;5.70;;;;;;;25.19;100.00;97817.63;5093189;28;20406;-73
2023/08/20 07:59:12;;;;;;;6.88;5.40;;;;;;;25.19;100.00;97824.97;5093051;28;20428;-73
2023/08/20 08:01:40;;;;;;;6.38;5.38;;;;;;;25.26;100.00;97819.81;5093026;28;20406;-73
2023/08/20 08:04:06;;;;;;;6.18;5.15;;;;;;;25.33;100.00;97826.28;5092932;28;20424;-73
2023/08/20 08:06:32;;;;;;;5.93;5.30;;;;;;;25.43;100.00;97827.72;5093172;28;20512;-73
2023/08/20 08:09:18;;;;;;;6.17;5.43;;;;;;;25.54;100.00;97826.19;5093024;28;20398;-73
2023/08/20 08:11:44;;;;;;;7.85;5.82;;;;;;;25.52;100.00;97825.72;5076766;28;20423;-74
2023/08/20 08:14:11;;;;;;;6.10;5.20;;;;;;;25.46;100.00;97829.78;5072531;28;20396;-73
2023/08/20 08:16:39;;;;;;;7.28;5.32;;;;;;;25.41;100.00;97827.28;5072658;28;20438;-73
2023/08/20 08:19:05;;;;;;;6.38;5.30;;;;;;;25.37;100.00;97831.78;5072534;28;20400;-73
2023/08/20 08:21:31;;;;;;;5.63;5.03;;;;;;;25.38;100.00;97830.66;5072308;28;20769;-73
2023/08/20 08:23:57;;;;;;;9.15;6.88;;;;;;;25.46;100.00;97843.34;5072380;28;20412;-73
2023/08/20 08:26:23;;;;;;;8.18;6.20;;;;;;;25.57;100.00;97830.91;5072412;28;20404;-73
2023/08/20 08:28:50;;;;;;;6.32;5.28;;;;;;;25.64;100.00;97835.78;5072393;28;20889;-73
2023/08/20 08:31:16;;;;;;;6.57;5.65;;;;;;;25.71;100.00;97833.34;5072084;28;20399;-73
2023/08/20 08:33:43;;;;;;;6.32;5.22;;;;;;;25.79;100.00;97832.41;5072385;28;20465;-73
2023/08/20 08:36:11;;;;;;;6.80;5.77;;;;;;;25.87;100.00;97834.22;5072204;28;20797;-74
2023/08/20 08:38:37;;;;;;;6.38;5.60;;;;;;;25.96;100.00;97837.63;5072180;28;20473;-73
2023/08/20 08:41:09;;;;;;;6.70;5.45;;;;;;;26.07;100.00;97836.03;5090606;28;20401;-73
2023/08/20 08:43:37;;;;;;;6.70;5.95;;;;;;;26.14;100.00;97836.25;5092175;28;20424;-73
2023/08/20 08:46:08;;;;;;;5.32;4.80;;;;;;;26.23;100.00;97833.41;5092225;28;20429;-73
2023/08/20 08:48:35;;;;;;;5.80;5.20;;;;;;;26.34;100.00;97836.47;5077718;28;20674;-73
2023/08/20 08:51:03;;;;;;;6.60;5.20;;;;;;;26.41;100.00;97833.97;5071604;28;20399;-73
2023/08/20 08:53:32;;;;;;;6.53;4.88;;;;;;;26.50;100.00;97832.69;5053786;28;20402;-73
2023/08/20 08:55:58;;;;;;;5.90;4.78;;;;;;;26.60;100.00;97839.56;5079994;28;20402;-73
2023/08/20 08:58:24;;;;;;;5.10;4.50;;;;;;;26.66;100.00;97840.13;5071873;28;20407;-73
2023/08/20 09:00:51;;;;;;;5.10;4.60;;;;;;;26.70;100.00;97839.06;5071587;28;20418;-74
2023/08/20 09:03:17;;;;;;;5.38;4.80;;;;;;;26.80;100.00;97835.06;5071466;28;20422;-73
2023/08/20 09:05:47;;;;;;;5.72;5.05;;;;;;;26.90;100.00;97837.34;5071499;28;20407;-73
2023/08/20 09:08:20;;;;;;;6.30;4.80;;;;;;;27.05;100.00;97838.50;5071517;28;20395;-74
2023/08/20 09:10:49;;;;;;;5.43;4.72;;;;;;;27.19;100.00;97839.69;5071410;28;20481;-73
2023/08/20 09:13:16;;;;;;;6.55;4.88;;;;;;;27.30;100.00;97840.75;5071398;28;20475;-73
2023/08/20 09:15:42;;;;;;;7.93;5.20;;;;;;;27.41;100.00;97841.03;5071461;28;20735;-73
2023/08/20 09:18:10;;;;;;;5.30;4.80;;;;;;;27.51;100.00;97845.16;5071357;28;20949;-73
2023/08/20 09:20:36;;;;;;;4.95;4.53;;;;;;;27.60;100.00;97848.50;5071019;28;20457;-73
2023/08/20 09:23:03;;;;;;;5.82;5.05;;;;;;;27.69;100.00;97840.97;5071001;28;20423;-73
2023/08/20 09:25:31;;;;;;;5.53;4.60;;;;;;;27.80;100.00;97847.47;5071206;28;20399;-73
2023/08/20 09:27:57;;;;;;;5.53;4.63;;;;;;;27.93;100.00;97848.94;5072212;28;20415;-73
2023/08/20 09:30:23;;;;;;;5.22;4.22;;;;;;;28.03;100.00;97839.44;5091280;28;20394;-72
2023/08/20 09:33:04;;;;;;;5.32;4.65;;;;;;;28.17;100.00;97836.28;5074418;28;20408;-73
2023/08/20 09:35:30;;;;;;;7.03;5.80;;;;;;;28.27;100.00;97841.19;5070951;28;20446;-73
2023/08/20 09:37:59;;;;;;;9.57;7.28;;;;;;;28.31;100.00;97842.84;5070852;28;20399;-73
2023/08/20 09:40:27;;;;;;;7.35;5.97;;;;;;;28.42;100.00;97835.66;5070726;28;20488;-73
2023/08/20 09:42:55;;;;;;;6.32;5.72;;;;;;;28.53;100.00;97833.19;5070708;28;20423;-72
2023/08/20 09:45:22;;;;;;;6.35;5.20;;;;;;;28.62;100.00;97846.59;5070850;28;20400;-72
2023/08/20 09:47:54;;;;;;;5.50;4.95;;;;;;;28.72;100.00;97852.25;5070981;28;20403;-73
2023/08/20 09:50:21;;;;;;;5.90;5.10;;;;;;;28.79;100.00;97846.22;5070773;28;20912;-73
2023/08/20 09:52:56;;;;;;;5.63;4.90;;;;;;;28.81;100.00;97847.41;5087362;28;20391;-73
2023/08/20 09:55:28;;;;;;;4.65;4.22;;;;;;;28.84;100.00;97841.25;5086280;28;20416;-73
2023/08/20 09:57:56;;;;;;;4.85;4.35;;;;;;;28.87;100.00;97837.78;5070787;28;20408;-73
2023/08/20 10:00:23;;;;;;;4.57;4.18;;;;;;;28.89;100.00;97834.72;5070633;28;20479;-73
2023/08/20 10:02:51;;;;;;;5.47;4.65;;;;;;;28.92;100.00;97833.22;5070175;28;20433;-73
2023/08/20 10:05:17;;;;;;;4.47;4.07;;;;;;;28.94;100.00;97837.16;5074037;28;20397;-73
2023/08/20 10:07:45;;;;;;;5.15;4.57;;;;;;;28.98;100.00;97838.00;5090636;28;20866;-73
2023/08/20 10:10:14;;;;;;;4.82;4.32;;;;;;;29.03;100.00;97831.47;5087347;28;20718;-73
2023/08/20 10:12:41;;;;;;;7.28;6.47;;;;;;;28.98;100.00;97832.56;5070345;28;20471;-73
2023/08/20 10:15:11;;;;;;;7.80;6.32;;;;;;;28.99;100.00;97831.41;5070333;28;20869;-73
2023/08/20 10:17:39;;;;;;;6.70;5.73;;;;;;;29.07;100.00;97829.59;5070455;28;20396;-73
2023/08/20 10:20:07;;;;;;;5.82;5.18;;;;;;;29.19;100.00;97826.69;5070144;28;20820;-73
2023/08/20 10:22:37;;;;;;;5.22;4.72;;;;;;;29.33;100.00;97824.22;5076471;28;20406;-73
2023/08/20 10:25:06;;;;;;;4.63;4.20;;;;;;;29.47;100.00;97826.47;5071785;28;20407;-73
2023/08/20 10:27:34;;;;;;;4.45;4.05;;;;;;;29.59;100.00;97820.81;5076369;28;20417;-73
2023/08/20 10:30:01;;;;;;;4.40;4.00;;;;;;;29.73;100.00;97829.22;5090114;28;20401;-73
2023/08/20 10:32:46;;;;;;;5.50;4.18;;;;;;;29.82;100.00;97832.50;5090362;28;20406;-73
2023/08/20 10:35:14;;;;;;;4.22;3.83;;;;;;;29.85;100.00;97829.00;5090319;28;20402;-73
2023/08/20 10:38:05;;;;;;;4.80;4.40;;;;;;;29.82;100.00;97829.78;5072232;28;20408;-73
2023/08/20 10:40:52;;;;;;;4.95;4.47;;;;;;;29.80;100.00;97823.09;5090244;28;20394;-73
2023/08/20 10:43:29;;;;;;;7.20;5.45;;;;;;;29.79;100.00;97827.75;5090230;28;20609;-73
2023/08/20 10:46:05;;;;;;;5.20;4.70;;;;;;;29.82;100.00;97823.53;5071989;28;20410;-73
2023/08/20 10:48:34;;;;;;;4.90;4.40;;;;;;;29.88;100.00;97824.78;5090386;28;20401;-73
2023/08/20 10:51:08;;;;;;;5.00;4.45;;;;;;;29.93;100.00;97825.28;5089969;28;20817;-73
2023/08/20 10:53:34;;;;;;;6.15;4.80;;;;;;;30.01;100.00;97826.97;5090218;28;20394;-73
2023/08/20 10:56:08;;;;;;;6.35;5.00;;;;;;;30.06;100.00;97828.59;5071812;28;20409;-73
2023/08/20 10:58:35;;;;;;;5.38;4.85;;;;;;;30.13;100.00;97823.25;5090280;28;20425;-73
2023/08/20 11:01:19;;;;;;;5.78;4.40;;;;;;;30.19;100.00;97820.97;5089753;28;20508;-73
2023/08/20 11:03:48;;;;;;;7.30;4.60;;;;;;;30.23;100.00;97817.13;5090074;28;20445;-73
2023/08/20 11:06:15;;;;;;;6.88;4.57;;;;;;;30.30;100.00;97819.94;5090141;28;20491;-73
2023/08/20 11:08:42;;;;;;;5.00;4.50;;;;;;;30.35;100.00;97825.09;5090029;28;20571;-73
2023/08/20 11:11:09;;;;;;;4.40;4.00;;;;;;;30.43;100.00;97817.00;5089667;28;20434;-73
2023/08/20 11:13:36;;;;;;;6.63;5.55;;;;;;;30.55;100.00;97808.59;5083412;28;20916;-73
2023/08/20 11:16:04;;;;;;;5.35;4.85;;;;;;;30.62;100.00;97816.88;5069670;28;20402;-73
2023/08/20 11:18:31;;;;;;;4.45;4.05;;;;;;;30.72;100.00;97808.03;5072971;28;20408;-73
2023/08/20 11:20:59;;;;;;;4.93;4.40;;;;;;;30.81;100.00;97811.25;5073320;28;20430;-73
2023/08/20 11:23:26;;;;;;;4.88;4.40;;;;;;;30.88;100.00;97808.59;5073425;28;20408;-73
2023/08/20 11:25:52;;;;;;;4.97;4.47;;;;;;;30.96;100.00;97806.72;5073498;28;20499;-73